Terminal Aerodrome Forecast
Issued by NWS Sterling, VA

Current Version | Previous Version | Text Only | Print | Product List | Glossary On
Versions: 1 2 3 4 5 6 7 8 9 10 11 12 13 14 15 16 17 18 19 20 21
917
FTUS41 KLWX 241720
TAFDCA
TAF
KDCA 241720Z 2418/2518 04005KT P6SM FEW250
     FM250000 10004KT P6SM FEW250
     FM251300 04004KT P6SM FEW250=

USA.gov is the U.S. government's official web portal to all federal, state and local government web resources and services.